sensor_id;sensor_type;location;lat;lon;timestamp;P1;durP1;ratioP1;P2;durP2;ratioP2
14698;SDS011;7439;50.804;4.602;2023-08-08T00:02:25;5.43;;;3.70;;
14698;SDS011;7439;50.804;4.602;2023-08-08T00:04:52;6.10;;;3.90;;
14698;SDS011;7439;50.804;4.602;2023-08-08T00:07:20;7.80;;;4.20;;
14698;SDS011;7439;50.804;4.602;2023-08-08T00:09:47;5.87;;;3.33;;
14698;SDS011;7439;50.804;4.602;2023-08-08T00:12:15;7.20;;;3.97;;
14698;SDS011;7439;50.804;4.602;2023-08-08T00:14:44;8.40;;;3.50;;
14698;SDS011;7439;50.804;4.602;2023-08-08T00:17:11;5.33;;;3.50;;
14698;SDS011;7439;50.804;4.602;2023-08-08T00:19:39;7.47;;;4.17;;
14698;SDS011;7439;50.804;4.602;2023-08-08T00:22:07;7.97;;;3.67;;
14698;SDS011;7439;50.804;4.602;2023-08-08T00:24:34;4.43;;;3.67;;
14698;SDS011;7439;50.804;4.602;2023-08-08T00:27:02;3.80;;;3.43;;
14698;SDS011;7439;50.804;4.602;2023-08-08T00:29:30;6.00;;;4.73;;
14698;SDS011;7439;50.804;4.602;2023-08-08T00:31:58;5.97;;;3.80;;
14698;SDS011;7439;50.804;4.602;2023-08-08T00:34:26;6.73;;;3.90;;
14698;SDS011;7439;50.804;4.602;2023-08-08T00:36:53;10.10;;;4.60;;
14698;SDS011;7439;50.804;4.602;2023-08-08T00:39:21;4.57;;;3.47;;
14698;SDS011;7439;50.804;4.602;2023-08-08T00:41:48;8.80;;;3.60;;
14698;SDS011;7439;50.804;4.602;2023-08-08T00:44:16;5.87;;;4.30;;
14698;SDS011;7439;50.804;4.602;2023-08-08T00:46:43;5.00;;;3.53;;
14698;SDS011;7439;50.804;4.602;2023-08-08T00:49:12;4.80;;;3.37;;
14698;SDS011;7439;50.804;4.602;2023-08-08T00:51:39;7.20;;;3.67;;
14698;SDS011;7439;50.804;4.602;2023-08-08T00:54:08;9.13;;;4.83;;
14698;SDS011;7439;50.804;4.602;2023-08-08T00:56:36;8.00;;;4.10;;
14698;SDS011;7439;50.804;4.602;2023-08-08T00:59:03;6.70;;;3.37;;
14698;SDS011;7439;50.804;4.602;2023-08-08T01:01:31;7.23;;;4.70;;
14698;SDS011;7439;50.804;4.602;2023-08-08T01:03:58;6.53;;;4.43;;
14698;SDS011;7439;50.804;4.602;2023-08-08T01:06:29;8.17;;;4.53;;
14698;SDS011;7439;50.804;4.602;2023-08-08T01:08:58;6.57;;;3.50;;
14698;SDS011;7439;50.804;4.602;2023-08-08T01:11:26;8.03;;;4.13;;
14698;SDS011;7439;50.804;4.602;2023-08-08T01:13:55;10.20;;;4.10;;
14698;SDS011;7439;50.804;4.602;2023-08-08T01:16:23;6.00;;;4.53;;
14698;SDS011;7439;50.804;4.602;2023-08-08T01:18:51;7.07;;;3.83;;
14698;SDS011;7439;50.804;4.602;2023-08-08T01:21:20;7.33;;;3.80;;
14698;SDS011;7439;50.804;4.602;2023-08-08T01:23:52;9.93;;;4.23;;
14698;SDS011;7439;50.804;4.602;2023-08-08T01:26:21;7.67;;;3.70;;
14698;SDS011;7439;50.804;4.602;2023-08-08T01:28:52;7.17;;;3.80;;
14698;SDS011;7439;50.804;4.602;2023-08-08T01:31:20;7.20;;;4.23;;
14698;SDS011;7439;50.804;4.602;2023-08-08T01:33:47;6.17;;;3.97;;
14698;SDS011;7439;50.804;4.602;2023-08-08T01:36:19;9.23;;;4.27;;
14698;SDS011;7439;50.804;4.602;2023-08-08T01:38:48;5.20;;;3.90;;
14698;SDS011;7439;50.804;4.602;2023-08-08T01:41:16;6.70;;;4.07;;
14698;SDS011;7439;50.804;4.602;2023-08-08T01:43:45;6.60;;;5.10;;
14698;SDS011;7439;50.804;4.602;2023-08-08T01:46:14;9.27;;;4.70;;
14698;SDS011;7439;50.804;4.602;2023-08-08T01:48:44;5.03;;;4.27;;
14698;SDS011;7439;50.804;4.602;2023-08-08T01:51:12;10.40;;;4.60;;
14698;SDS011;7439;50.804;4.602;2023-08-08T01:53:39;9.40;;;4.20;;
14698;SDS011;7439;50.804;4.602;2023-08-08T01:56:07;11.73;;;5.10;;
14698;SDS011;7439;50.804;4.602;2023-08-08T01:58:34;6.67;;;4.13;;
14698;SDS011;7439;50.804;4.602;2023-08-08T02:01:03;9.23;;;4.67;;
14698;SDS011;7439;50.804;4.602;2023-08-08T02:03:31;8.70;;;4.53;;
14698;SDS011;7439;50.804;4.602;2023-08-08T02:05:58;8.67;;;4.80;;
14698;SDS011;7439;50.804;4.602;2023-08-08T02:08:25;6.13;;;4.10;;
14698;SDS011;7439;50.804;4.602;2023-08-08T02:10:53;9.10;;;4.37;;
14698;SDS011;7439;50.804;4.602;2023-08-08T02:13:20;7.27;;;4.13;;
14698;SDS011;7439;50.804;4.602;2023-08-08T02:15:47;12.90;;;4.63;;
14698;SDS011;7439;50.804;4.602;2023-08-08T02:18:16;11.37;;;4.97;;
14698;SDS011;7439;50.804;4.602;2023-08-08T02:20:43;12.43;;;4.60;;
14698;SDS011;7439;50.804;4.602;2023-08-08T02:23:11;6.43;;;4.20;;
14698;SDS011;7439;50.804;4.602;2023-08-08T02:25:38;19.70;;;4.60;;
14698;SDS011;7439;50.804;4.602;2023-08-08T02:28:05;9.07;;;4.50;;
14698;SDS011;7439;50.804;4.602;2023-08-08T02:30:33;9.70;;;4.63;;
14698;SDS011;7439;50.804;4.602;2023-08-08T02:33:00;8.73;;;4.57;;
14698;SDS011;7439;50.804;4.602;2023-08-08T02:35:29;10.53;;;5.13;;
14698;SDS011;7439;50.804;4.602;2023-08-08T02:37:56;7.77;;;4.93;;
14698;SDS011;7439;50.804;4.602;2023-08-08T02:40:23;13.90;;;4.93;;
14698;SDS011;7439;50.804;4.602;2023-08-08T02:42:52;7.03;;;4.33;;
14698;SDS011;7439;50.804;4.602;2023-08-08T02:45:19;12.70;;;5.60;;
14698;SDS011;7439;50.804;4.602;2023-08-08T02:47:46;9.17;;;4.53;;
14698;SDS011;7439;50.804;4.602;2023-08-08T02:50:13;12.67;;;4.57;;
14698;SDS011;7439;50.804;4.602;2023-08-08T02:52:43;10.23;;;4.60;;
14698;SDS011;7439;50.804;4.602;2023-08-08T02:55:10;8.07;;;4.03;;
14698;SDS011;7439;50.804;4.602;2023-08-08T02:57:37;10.00;;;6.10;;
14698;SDS011;7439;50.804;4.602;2023-08-08T03:00:06;13.40;;;4.90;;
14698;SDS011;7439;50.804;4.602;2023-08-08T03:02:35;10.77;;;5.60;;
14698;SDS011;7439;50.804;4.602;2023-08-08T03:05:03;6.67;;;4.93;;
14698;SDS011;7439;50.804;4.602;2023-08-08T03:07:31;8.00;;;4.37;;
14698;SDS011;7439;50.804;4.602;2023-08-08T03:10:00;16.70;;;5.30;;
14698;SDS011;7439;50.804;4.602;2023-08-08T03:12:28;10.03;;;5.27;;
14698;SDS011;7439;50.804;4.602;2023-08-08T03:14:55;8.83;;;4.60;;
14698;SDS011;7439;50.804;4.602;2023-08-08T03:17:23;8.83;;;4.50;;
14698;SDS011;7439;50.804;4.602;2023-08-08T03:19:50;7.07;;;4.60;;
14698;SDS011;7439;50.804;4.602;2023-08-08T03:22:18;9.03;;;4.50;;
14698;SDS011;7439;50.804;4.602;2023-08-08T03:24:45;11.30;;;4.77;;
14698;SDS011;7439;50.804;4.602;2023-08-08T03:27:14;11.40;;;4.53;;
14698;SDS011;7439;50.804;4.602;2023-08-08T03:29:42;6.10;;;5.20;;
14698;SDS011;7439;50.804;4.602;2023-08-08T03:32:09;9.43;;;4.97;;
14698;SDS011;7439;50.804;4.602;2023-08-08T03:34:37;9.13;;;4.70;;
14698;SDS011;7439;50.804;4.602;2023-08-08T03:37:04;16.10;;;5.27;;
14698;SDS011;7439;50.804;4.602;2023-08-08T03:39:32;7.60;;;4.77;;
14698;SDS011;7439;50.804;4.602;2023-08-08T03:41:59;6.20;;;5.13;;
14698;SDS011;7439;50.804;4.602;2023-08-08T03:44:28;12.13;;;4.67;;
14698;SDS011;7439;50.804;4.602;2023-08-08T03:46:56;15.67;;;6.53;;
14698;SDS011;7439;50.804;4.602;2023-08-08T03:49:23;10.37;;;5.30;;
14698;SDS011;7439;50.804;4.602;2023-08-08T03:51:51;12.03;;;5.93;;
14698;SDS011;7439;50.804;4.602;2023-08-08T03:54:18;10.13;;;5.10;;
14698;SDS011;7439;50.804;4.602;2023-08-08T03:56:46;12.07;;;5.80;;
14698;SDS011;7439;50.804;4.602;2023-08-08T03:59:13;10.63;;;4.50;;
14698;SDS011;7439;50.804;4.602;2023-08-08T04:01:42;16.77;;;5.97;;
14698;SDS011;7439;50.804;4.602;2023-08-08T04:04:10;13.43;;;5.63;;
14698;SDS011;7439;50.804;4.602;2023-08-08T04:06:37;11.17;;;6.23;;
14698;SDS011;7439;50.804;4.602;2023-08-08T04:09:05;13.20;;;6.07;;
14698;SDS011;7439;50.804;4.602;2023-08-08T04:11:36;10.07;;;5.73;;
14698;SDS011;7439;50.804;4.602;2023-08-08T04:14:04;9.40;;;5.63;;
14698;SDS011;7439;50.804;4.602;2023-08-08T04:16:31;11.40;;;6.30;;
14698;SDS011;7439;50.804;4.602;2023-08-08T04:19:00;7.97;;;5.37;;
14698;SDS011;7439;50.804;4.602;2023-08-08T04:21:28;12.00;;;5.93;;
14698;SDS011;7439;50.804;4.602;2023-08-08T04:23:57;11.10;;;6.43;;
14698;SDS011;7439;50.804;4.602;2023-08-08T04:26:25;16.20;;;6.37;;
14698;SDS011;7439;50.804;4.602;2023-08-08T04:28:52;13.07;;;7.07;;
14698;SDS011;7439;50.804;4.602;2023-08-08T04:31:20;14.40;;;6.50;;
14698;SDS011;7439;50.804;4.602;2023-08-08T04:33:51;13.00;;;6.73;;
14698;SDS011;7439;50.804;4.602;2023-08-08T04:36:22;16.93;;;7.40;;
14698;SDS011;7439;50.804;4.602;2023-08-08T04:38:50;17.17;;;7.23;;
14698;SDS011;7439;50.804;4.602;2023-08-08T04:41:17;15.03;;;5.90;;
14698;SDS011;7439;50.804;4.602;2023-08-08T04:43:44;12.07;;;6.80;;
14698;SDS011;7439;50.804;4.602;2023-08-08T04:46:12;10.80;;;5.97;;
14698;SDS011;7439;50.804;4.602;2023-08-08T04:48:39;14.53;;;6.23;;
14698;SDS011;7439;50.804;4.602;2023-08-08T04:51:08;17.17;;;6.03;;
14698;SDS011;7439;50.804;4.602;2023-08-08T04:53:38;10.03;;;6.00;;
14698;SDS011;7439;50.804;4.602;2023-08-08T04:56:05;12.10;;;6.13;;
14698;SDS011;7439;50.804;4.602;2023-08-08T04:58:33;12.27;;;6.43;;
14698;SDS011;7439;50.804;4.602;2023-08-08T05:01:01;14.67;;;5.80;;
14698;SDS011;7439;50.804;4.602;2023-08-08T05:03:28;11.33;;;5.83;;
14698;SDS011;7439;50.804;4.602;2023-08-08T05:05:55;10.90;;;5.77;;
14698;SDS011;7439;50.804;4.602;2023-08-08T05:08:26;10.53;;;6.53;;
14698;SDS011;7439;50.804;4.602;2023-08-08T05:10:56;16.53;;;6.27;;
14698;SDS011;7439;50.804;4.602;2023-08-08T05:13:23;15.43;;;5.60;;
14698;SDS011;7439;50.804;4.602;2023-08-08T05:15:51;12.23;;;7.07;;
14698;SDS011;7439;50.804;4.602;2023-08-08T05:18:18;15.87;;;6.17;;
14698;SDS011;7439;50.804;4.602;2023-08-08T05:20:46;14.33;;;6.43;;
14698;SDS011;7439;50.804;4.602;2023-08-08T05:23:17;13.93;;;7.17;;
14698;SDS011;7439;50.804;4.602;2023-08-08T05:25:47;16.27;;;6.70;;
14698;SDS011;7439;50.804;4.602;2023-08-08T05:28:16;15.93;;;6.57;;
14698;SDS011;7439;50.804;4.602;2023-08-08T05:30:44;10.63;;;6.40;;
14698;SDS011;7439;50.804;4.602;2023-08-08T05:33:13;13.97;;;8.00;;
14698;SDS011;7439;50.804;4.602;2023-08-08T05:35:41;13.37;;;5.47;;
14698;SDS011;7439;50.804;4.602;2023-08-08T05:38:08;15.63;;;6.83;;
14698;SDS011;7439;50.804;4.602;2023-08-08T05:40:36;15.87;;;6.83;;
14698;SDS011;7439;50.804;4.602;2023-08-08T05:43:03;32.63;;;7.07;;
14698;SDS011;7439;50.804;4.602;2023-08-08T05:45:32;14.33;;;5.43;;
14698;SDS011;7439;50.804;4.602;2023-08-08T05:48:00;8.40;;;5.40;;
14698;SDS011;7439;50.804;4.602;2023-08-08T05:50:27;15.13;;;5.90;;
14698;SDS011;7439;50.804;4.602;2023-08-08T05:52:55;10.50;;;5.43;;
14698;SDS011;7439;50.804;4.602;2023-08-08T05:55:22;10.90;;;5.00;;
14698;SDS011;7439;50.804;4.602;2023-08-08T05:57:50;11.93;;;6.07;;
14698;SDS011;7439;50.804;4.602;2023-08-08T06:00:17;13.77;;;5.97;;
14698;SDS011;7439;50.804;4.602;2023-08-08T06:02:46;11.37;;;5.13;;
14698;SDS011;7439;50.804;4.602;2023-08-08T06:05:14;11.40;;;5.40;;
14698;SDS011;7439;50.804;4.602;2023-08-08T06:07:41;13.20;;;7.17;;
14698;SDS011;7439;50.804;4.602;2023-08-08T06:10:09;10.40;;;5.23;;
14698;SDS011;7439;50.804;4.602;2023-08-08T06:12:36;11.63;;;6.17;;
14698;SDS011;7439;50.804;4.602;2023-08-08T06:15:04;9.47;;;5.37;;
14698;SDS011;7439;50.804;4.602;2023-08-08T06:17:31;14.37;;;6.10;;
14698;SDS011;7439;50.804;4.602;2023-08-08T06:20:00;10.47;;;5.77;;
14698;SDS011;7439;50.804;4.602;2023-08-08T06:22:28;13.67;;;5.13;;
14698;SDS011;7439;50.804;4.602;2023-08-08T06:24:55;7.43;;;4.87;;
14698;SDS011;7439;50.804;4.602;2023-08-08T06:27:23;9.50;;;4.70;;
14698;SDS011;7439;50.804;4.602;2023-08-08T06:29:50;9.33;;;4.83;;
14698;SDS011;7439;50.804;4.602;2023-08-08T06:32:18;9.70;;;5.03;;
14698;SDS011;7439;50.804;4.602;2023-08-08T06:34:45;9.17;;;4.83;;
14698;SDS011;7439;50.804;4.602;2023-08-08T06:37:14;13.77;;;4.07;;
14698;SDS011;7439;50.804;4.602;2023-08-08T06:39:41;9.13;;;5.40;;
14698;SDS011;7439;50.804;4.602;2023-08-08T06:42:09;12.37;;;5.00;;
14698;SDS011;7439;50.804;4.602;2023-08-08T06:44:40;11.33;;;4.23;;
14698;SDS011;7439;50.804;4.602;2023-08-08T06:47:08;7.33;;;4.13;;
14698;SDS011;7439;50.804;4.602;2023-08-08T06:49:36;7.57;;;4.23;;
14698;SDS011;7439;50.804;4.602;2023-08-08T06:52:03;6.00;;;3.90;;
14698;SDS011;7439;50.804;4.602;2023-08-08T06:54:32;9.87;;;4.70;;
14698;SDS011;7439;50.804;4.602;2023-08-08T06:57:00;9.90;;;4.20;;
14698;SDS011;7439;50.804;4.602;2023-08-08T06:59:27;8.23;;;4.03;;
14698;SDS011;7439;50.804;4.602;2023-08-08T07:01:55;9.13;;;4.87;;
14698;SDS011;7439;50.804;4.602;2023-08-08T07:04:22;4.23;;;3.77;;
14698;SDS011;7439;50.804;4.602;2023-08-08T07:06:50;8.70;;;5.00;;
14698;SDS011;7439;50.804;4.602;2023-08-08T07:09:17;5.20;;;4.00;;
14698;SDS011;7439;50.804;4.602;2023-08-08T07:11:46;6.47;;;4.17;;
14698;SDS011;7439;50.804;4.602;2023-08-08T07:14:14;6.27;;;4.17;;
14698;SDS011;7439;50.804;4.602;2023-08-08T07:16:41;8.80;;;4.50;;
14698;SDS011;7439;50.804;4.602;2023-08-08T07:19:09;6.07;;;4.83;;
14698;SDS011;7439;50.804;4.602;2023-08-08T07:21:36;6.20;;;4.87;;
14698;SDS011;7439;50.804;4.602;2023-08-08T07:24:04;10.20;;;7.73;;
14698;SDS011;7439;50.804;4.602;2023-08-08T07:26:31;7.07;;;5.27;;
14698;SDS011;7439;50.804;4.602;2023-08-08T07:29:00;5.93;;;4.87;;
14698;SDS011;7439;50.804;4.602;2023-08-08T07:31:28;6.30;;;5.43;;
14698;SDS011;7439;50.804;4.602;2023-08-08T07:33:55;7.53;;;4.93;;
14698;SDS011;7439;50.804;4.602;2023-08-08T07:36:22;6.13;;;4.70;;
14698;SDS011;7439;50.804;4.602;2023-08-08T07:38:50;8.83;;;5.30;;
14698;SDS011;7439;50.804;4.602;2023-08-08T07:41:17;6.87;;;5.07;;
14698;SDS011;7439;50.804;4.602;2023-08-08T07:43:45;6.80;;;4.77;;
14698;SDS011;7439;50.804;4.602;2023-08-08T07:46:13;6.73;;;4.70;;
14698;SDS011;7439;50.804;4.602;2023-08-08T07:48:41;6.87;;;4.57;;
14698;SDS011;7439;50.804;4.602;2023-08-08T07:51:08;5.60;;;4.53;;
14698;SDS011;7439;50.804;4.602;2023-08-08T07:53:36;7.57;;;5.73;;
14698;SDS011;7439;50.804;4.602;2023-08-08T07:56:03;5.30;;;4.83;;
14698;SDS011;7439;50.804;4.602;2023-08-08T07:58:31;6.30;;;5.00;;
14698;SDS011;7439;50.804;4.602;2023-08-08T08:00:58;5.80;;;5.30;;
14698;SDS011;7439;50.804;4.602;2023-08-08T08:03:27;6.43;;;5.83;;
14698;SDS011;7439;50.804;4.602;2023-08-08T08:05:55;6.87;;;6.00;;
14698;SDS011;7439;50.804;4.602;2023-08-08T08:08:22;10.97;;;6.07;;
14698;SDS011;7439;50.804;4.602;2023-08-08T08:10:50;10.80;;;5.50;;
14698;SDS011;7439;50.804;4.602;2023-08-08T08:13:17;6.53;;;5.70;;
14698;SDS011;7439;50.804;4.602;2023-08-08T08:15:45;6.57;;;5.97;;
14698;SDS011;7439;50.804;4.602;2023-08-08T08:18:13;9.07;;;5.97;;
14698;SDS011;7439;50.804;4.602;2023-08-08T08:20:43;5.73;;;5.13;;
14698;SDS011;7439;50.804;4.602;2023-08-08T08:23:11;6.57;;;5.50;;
14698;SDS011;7439;50.804;4.602;2023-08-08T08:25:42;6.20;;;4.93;;
14698;SDS011;7439;50.804;4.602;2023-08-08T08:28:10;17.40;;;7.00;;
14698;SDS011;7439;50.804;4.602;2023-08-08T08:30:37;9.93;;;7.13;;
14698;SDS011;7439;50.804;4.602;2023-08-08T08:33:07;9.70;;;7.33;;
14698;SDS011;7439;50.804;4.602;2023-08-08T08:35:34;8.47;;;6.90;;
14698;SDS011;7439;50.804;4.602;2023-08-08T08:38:04;7.97;;;6.70;;
14698;SDS011;7439;50.804;4.602;2023-08-08T08:40:33;8.47;;;7.10;;
14698;SDS011;7439;50.804;4.602;2023-08-08T08:43:01;7.00;;;6.40;;
14698;SDS011;7439;50.804;4.602;2023-08-08T08:45:29;6.73;;;6.13;;
14698;SDS011;7439;50.804;4.602;2023-08-08T08:47:57;9.10;;;7.43;;
14698;SDS011;7439;50.804;4.602;2023-08-08T08:50:26;8.30;;;6.90;;
14698;SDS011;7439;50.804;4.602;2023-08-08T08:52:54;7.60;;;7.03;;
14698;SDS011;7439;50.804;4.602;2023-08-08T08:55:23;8.73;;;7.90;;
14698;SDS011;7439;50.804;4.602;2023-08-08T08:57:51;10.27;;;7.57;;
14698;SDS011;7439;50.804;4.602;2023-08-08T09:00:19;7.13;;;6.47;;
14698;SDS011;7439;50.804;4.602;2023-08-08T09:02:47;8.43;;;7.37;;
14698;SDS011;7439;50.804;4.602;2023-08-08T09:05:15;10.77;;;8.00;;
14698;SDS011;7439;50.804;4.602;2023-08-08T09:07:48;9.13;;;8.43;;
14698;SDS011;7439;50.804;4.602;2023-08-08T09:10:16;7.87;;;6.93;;
14698;SDS011;7439;50.804;4.602;2023-08-08T09:12:45;9.93;;;6.70;;
14698;SDS011;7439;50.804;4.602;2023-08-08T09:15:14;8.13;;;7.43;;
14698;SDS011;7439;50.804;4.602;2023-08-08T09:17:44;9.30;;;8.47;;
14698;SDS011;7439;50.804;4.602;2023-08-08T09:20:12;9.37;;;8.43;;
14698;SDS011;7439;50.804;4.602;2023-08-08T09:22:40;8.17;;;7.40;;
14698;SDS011;7439;50.804;4.602;2023-08-08T09:25:08;8.70;;;8.00;;
14698;SDS011;7439;50.804;4.602;2023-08-08T09:27:35;7.97;;;7.00;;
14698;SDS011;7439;50.804;4.602;2023-08-08T09:30:05;7.73;;;6.83;;
14698;SDS011;7439;50.804;4.602;2023-08-08T09:32:34;7.03;;;6.40;;
14698;SDS011;7439;50.804;4.602;2023-08-08T09:35:01;8.43;;;7.87;;
14698;SDS011;7439;50.804;4.602;2023-08-08T09:37:34;8.33;;;7.53;;
14698;SDS011;7439;50.804;4.602;2023-08-08T09:40:02;8.43;;;7.63;;
14698;SDS011;7439;50.804;4.602;2023-08-08T09:42:30;7.57;;;6.83;;
14698;SDS011;7439;50.804;4.602;2023-08-08T09:44:58;8.97;;;7.53;;
14698;SDS011;7439;50.804;4.602;2023-08-08T09:47:28;7.47;;;6.87;;
14698;SDS011;7439;50.804;4.602;2023-08-08T09:49:57;7.83;;;7.17;;
14698;SDS011;7439;50.804;4.602;2023-08-08T09:52:26;7.03;;;6.27;;
14698;SDS011;7439;50.804;4.602;2023-08-08T09:54:54;6.27;;;5.90;;
14698;SDS011;7439;50.804;4.602;2023-08-08T09:57:22;7.13;;;6.63;;
14698;SDS011;7439;50.804;4.602;2023-08-08T09:59:49;9.83;;;6.43;;
14698;SDS011;7439;50.804;4.602;2023-08-08T10:02:18;8.90;;;7.17;;
14698;SDS011;7439;50.804;4.602;2023-08-08T10:04:47;12.53;;;6.03;;
14698;SDS011;7439;50.804;4.602;2023-08-08T10:07:14;5.97;;;5.20;;
14698;SDS011;7439;50.804;4.602;2023-08-08T10:09:42;8.80;;;6.47;;
14698;SDS011;7439;50.804;4.602;2023-08-08T10:12:10;6.03;;;5.63;;
14698;SDS011;7439;50.804;4.602;2023-08-08T10:14:41;6.13;;;5.67;;
14698;SDS011;7439;50.804;4.602;2023-08-08T10:17:12;7.47;;;6.43;;
14698;SDS011;7439;50.804;4.602;2023-08-08T10:19:40;7.20;;;6.60;;
14698;SDS011;7439;50.804;4.602;2023-08-08T10:22:09;7.13;;;6.53;;
14698;SDS011;7439;50.804;4.602;2023-08-08T10:24:36;8.60;;;7.83;;
14698;SDS011;7439;50.804;4.602;2023-08-08T10:27:05;8.20;;;7.43;;
14698;SDS011;7439;50.804;4.602;2023-08-08T10:29:33;7.77;;;6.97;;
14698;SDS011;7439;50.804;4.602;2023-08-08T10:32:01;6.80;;;6.27;;
14698;SDS011;7439;50.804;4.602;2023-08-08T10:34:36;7.40;;;6.67;;
14698;SDS011;7439;50.804;4.602;2023-08-08T10:37:04;7.10;;;5.20;;
14698;SDS011;7439;50.804;4.602;2023-08-08T10:39:33;6.70;;;5.50;;
14698;SDS011;7439;50.804;4.602;2023-08-08T10:42:01;11.03;;;6.63;;
14698;SDS011;7439;50.804;4.602;2023-08-08T10:44:30;7.13;;;5.10;;
14698;SDS011;7439;50.804;4.602;2023-08-08T10:46:59;5.60;;;5.20;;
14698;SDS011;7439;50.804;4.602;2023-08-08T10:49:27;7.63;;;5.20;;
14698;SDS011;7439;50.804;4.602;2023-08-08T10:52:01;6.47;;;5.63;;
14698;SDS011;7439;50.804;4.602;2023-08-08T10:54:29;5.93;;;5.47;;
14698;SDS011;7439;50.804;4.602;2023-08-08T10:57:00;4.93;;;4.10;;
14698;SDS011;7439;50.804;4.602;2023-08-08T10:59:28;6.57;;;5.47;;
14698;SDS011;7439;50.804;4.602;2023-08-08T11:02:03;5.43;;;4.93;;
14698;SDS011;7439;50.804;4.602;2023-08-08T11:04:30;5.03;;;4.63;;
14698;SDS011;7439;50.804;4.602;2023-08-08T11:06:58;4.90;;;4.50;;
14698;SDS011;7439;50.804;4.602;2023-08-08T11:09:26;5.60;;;4.60;;
14698;SDS011;7439;50.804;4.602;2023-08-08T11:11:53;6.83;;;4.30;;
14698;SDS011;7439;50.804;4.602;2023-08-08T11:14:22;6.73;;;4.77;;
14698;SDS011;7439;50.804;4.602;2023-08-08T11:16:50;8.43;;;4.97;;
14698;SDS011;7439;50.804;4.602;2023-08-08T11:19:18;6.47;;;4.37;;
14698;SDS011;7439;50.804;4.602;2023-08-08T11:21:45;4.87;;;4.07;;
14698;SDS011;7439;50.804;4.602;2023-08-08T11:24:14;4.77;;;4.40;;
14698;SDS011;7439;50.804;4.602;2023-08-08T11:26:42;5.30;;;4.20;;
14698;SDS011;7439;50.804;4.602;2023-08-08T11:29:10;4.60;;;4.13;;
14698;SDS011;7439;50.804;4.602;2023-08-08T11:31:39;4.00;;;3.40;;
14698;SDS011;7439;50.804;4.602;2023-08-08T11:34:07;7.90;;;2.80;;
14698;SDS011;7439;50.804;4.602;2023-08-08T11:36:37;3.93;;;2.67;;
14698;SDS011;7439;50.804;4.602;2023-08-08T11:39:04;3.30;;;3.00;;
14698;SDS011;7439;50.804;4.602;2023-08-08T11:41:35;3.00;;;2.80;;
14698;SDS011;7439;50.804;4.602;2023-08-08T11:44:02;4.30;;;2.80;;
14698;SDS011;7439;50.804;4.602;2023-08-08T11:46:30;5.13;;;3.03;;
14698;SDS011;7439;50.804;4.602;2023-08-08T11:49:03;2.67;;;2.30;;
14698;SDS011;7439;50.804;4.602;2023-08-08T11:51:31;8.23;;;3.70;;
14698;SDS011;7439;50.804;4.602;2023-08-08T11:54:01;5.40;;;3.83;;
14698;SDS011;7439;50.804;4.602;2023-08-08T11:56:29;3.60;;;3.20;;
14698;SDS011;7439;50.804;4.602;2023-08-08T11:58:56;4.50;;;3.97;;
14698;SDS011;7439;50.804;4.602;2023-08-08T12:01:25;4.17;;;3.87;;
14698;SDS011;7439;50.804;4.602;2023-08-08T12:03:52;3.87;;;3.67;;
14698;SDS011;7439;50.804;4.602;2023-08-08T12:06:21;3.90;;;3.63;;
14698;SDS011;7439;50.804;4.602;2023-08-08T12:08:49;4.27;;;3.73;;
14698;SDS011;7439;50.804;4.602;2023-08-08T12:11:16;5.77;;;5.37;;
14698;SDS011;7439;50.804;4.602;2023-08-08T12:13:44;3.83;;;3.53;;
14698;SDS011;7439;50.804;4.602;2023-08-08T12:16:13;4.47;;;4.07;;
14698;SDS011;7439;50.804;4.602;2023-08-08T12:18:41;4.63;;;3.77;;
14698;SDS011;7439;50.804;4.602;2023-08-08T12:21:09;8.47;;;3.80;;
14698;SDS011;7439;50.804;4.602;2023-08-08T12:23:38;4.27;;;3.30;;
14698;SDS011;7439;50.804;4.602;2023-08-08T12:26:05;3.57;;;2.90;;
14698;SDS011;7439;50.804;4.602;2023-08-08T12:28:34;2.90;;;2.40;;
14698;SDS011;7439;50.804;4.602;2023-08-08T12:31:01;3.90;;;2.30;;
14698;SDS011;7439;50.804;4.602;2023-08-08T12:33:29;2.37;;;2.17;;
14698;SDS011;7439;50.804;4.602;2023-08-08T12:35:56;2.50;;;2.07;;
14698;SDS011;7439;50.804;4.602;2023-08-08T12:38:23;2.80;;;2.20;;
14698;SDS011;7439;50.804;4.602;2023-08-08T12:40:52;4.87;;;1.87;;
14698;SDS011;7439;50.804;4.602;2023-08-08T12:43:20;3.43;;;2.87;;
14698;SDS011;7439;50.804;4.602;2023-08-08T12:45:47;4.07;;;2.57;;
14698;SDS011;7439;50.804;4.602;2023-08-08T12:48:14;3.70;;;2.43;;
14698;SDS011;7439;50.804;4.602;2023-08-08T12:50:42;3.00;;;2.13;;
14698;SDS011;7439;50.804;4.602;2023-08-08T12:53:09;3.60;;;2.20;;
14698;SDS011;7439;50.804;4.602;2023-08-08T12:55:36;8.93;;;2.40;;
14698;SDS011;7439;50.804;4.602;2023-08-08T12:58:06;2.50;;;2.10;;
14698;SDS011;7439;50.804;4.602;2023-08-08T13:00:34;3.40;;;2.07;;
14698;SDS011;7439;50.804;4.602;2023-08-08T13:03:01;2.77;;;1.90;;
14698;SDS011;7439;50.804;4.602;2023-08-08T13:05:29;2.73;;;1.90;;
14698;SDS011;7439;50.804;4.602;2023-08-08T13:07:57;2.77;;;1.90;;
14698;SDS011;7439;50.804;4.602;2023-08-08T13:10:24;2.17;;;1.67;;
14698;SDS011;7439;50.804;4.602;2023-08-08T13:12:52;2.87;;;1.90;;
14698;SDS011;7439;50.804;4.602;2023-08-08T13:15:22;3.40;;;2.00;;
14698;SDS011;7439;50.804;4.602;2023-08-08T13:17:49;2.93;;;2.00;;
14698;SDS011;7439;50.804;4.602;2023-08-08T13:20:32;2.47;;;2.00;;
14698;SDS011;7439;50.804;4.602;2023-08-08T13:23:19;5.70;;;2.20;;
14698;SDS011;7439;50.804;4.602;2023-08-08T13:26:09;3.50;;;2.30;;
14698;SDS011;7439;50.804;4.602;2023-08-08T13:28:51;2.80;;;2.03;;
14698;SDS011;7439;50.804;4.602;2023-08-08T13:31:25;2.60;;;1.60;;
14698;SDS011;7439;50.804;4.602;2023-08-08T13:33:53;2.50;;;2.00;;
14698;SDS011;7439;50.804;4.602;2023-08-08T13:36:20;3.57;;;2.30;;
14698;SDS011;7439;50.804;4.602;2023-08-08T13:38:48;2.50;;;2.30;;
14698;SDS011;7439;50.804;4.602;2023-08-08T13:41:15;2.30;;;2.10;;
14698;SDS011;7439;50.804;4.602;2023-08-08T13:43:43;1.90;;;1.80;;
14698;SDS011;7439;50.804;4.602;2023-08-08T13:46:10;1.83;;;1.67;;
14698;SDS011;7439;50.804;4.602;2023-08-08T13:48:39;2.57;;;1.70;;
14698;SDS011;7439;50.804;4.602;2023-08-08T13:51:06;3.57;;;1.93;;
14698;SDS011;7439;50.804;4.602;2023-08-08T13:53:34;7.53;;;2.03;;
14698;SDS011;7439;50.804;4.602;2023-08-08T13:56:01;2.37;;;1.47;;
14698;SDS011;7439;50.804;4.602;2023-08-08T13:58:29;3.67;;;1.80;;
14698;SDS011;7439;50.804;4.602;2023-08-08T14:00:56;1.70;;;1.40;;
14698;SDS011;7439;50.804;4.602;2023-08-08T14:03:23;1.30;;;1.20;;
14698;SDS011;7439;50.804;4.602;2023-08-08T14:05:52;4.33;;;1.60;;
14698;SDS011;7439;50.804;4.602;2023-08-08T14:08:20;2.27;;;1.20;;
14698;SDS011;7439;50.804;4.602;2023-08-08T14:10:47;5.33;;;1.67;;
14698;SDS011;7439;50.804;4.602;2023-08-08T14:13:14;6.50;;;2.13;;
14698;SDS011;7439;50.804;4.602;2023-08-08T14:15:44;1.63;;;1.40;;
14698;SDS011;7439;50.804;4.602;2023-08-08T14:18:11;3.23;;;1.80;;
14698;SDS011;7439;50.804;4.602;2023-08-08T14:20:38;1.53;;;1.40;;
14698;SDS011;7439;50.804;4.602;2023-08-08T14:23:07;7.67;;;2.00;;
14698;SDS011;7439;50.804;4.602;2023-08-08T14:25:35;2.73;;;1.90;;
14698;SDS011;7439;50.804;4.602;2023-08-08T14:28:03;2.23;;;1.90;;
14698;SDS011;7439;50.804;4.602;2023-08-08T14:30:30;3.47;;;2.00;;
14698;SDS011;7439;50.804;4.602;2023-08-08T14:32:57;6.50;;;2.60;;
14698;SDS011;7439;50.804;4.602;2023-08-08T14:35:25;2.83;;;1.70;;
14698;SDS011;7439;50.804;4.602;2023-08-08T14:37:53;1.70;;;1.60;;
14698;SDS011;7439;50.804;4.602;2023-08-08T14:40:22;2.70;;;1.80;;
14698;SDS011;7439;50.804;4.602;2023-08-08T14:42:49;2.23;;;1.73;;
14698;SDS011;7439;50.804;4.602;2023-08-08T14:45:16;2.00;;;1.90;;
14698;SDS011;7439;50.804;4.602;2023-08-08T14:47:44;2.17;;;1.80;;
14698;SDS011;7439;50.804;4.602;2023-08-08T14:50:11;3.23;;;2.03;;
14698;SDS011;7439;50.804;4.602;2023-08-08T14:52:39;4.33;;;2.10;;
14698;SDS011;7439;50.804;4.602;2023-08-08T14:55:07;4.33;;;1.90;;
14698;SDS011;7439;50.804;4.602;2023-08-08T14:57:36;2.67;;;1.93;;
14698;SDS011;7439;50.804;4.602;2023-08-08T15:00:03;2.40;;;2.10;;
14698;SDS011;7439;50.804;4.602;2023-08-08T15:02:31;2.80;;;2.30;;
14698;SDS011;7439;50.804;4.602;2023-08-08T15:04:59;2.20;;;1.97;;